sensor_id;sensor_type;location;lat;lon;timestamp;temperature;humidity
4602;DHT22;2313;48.552;9.370;2023-05-10T00:00:37;13.70;99.90
4602;DHT22;2313;48.552;9.370;2023-05-10T00:03:03;13.70;99.90
4602;DHT22;2313;48.552;9.370;2023-05-10T00:05:30;13.70;99.90
4602;DHT22;2313;48.552;9.370;2023-05-10T00:07:56;13.70;99.90
4602;DHT22;2313;48.552;9.370;2023-05-10T00:10:21;13.70;99.90
4602;DHT22;2313;48.552;9.370;2023-05-10T00:12:47;13.70;99.90
4602;DHT22;2313;48.552;9.370;2023-05-10T00:15:12;13.60;99.90
4602;DHT22;2313;48.552;9.370;2023-05-10T00:17:38;13.60;99.90
4602;DHT22;2313;48.552;9.370;2023-05-10T00:20:04;13.70;99.90
4602;DHT22;2313;48.552;9.370;2023-05-10T00:22:30;13.70;99.90
4602;DHT22;2313;48.552;9.370;2023-05-10T00:24:57;13.60;99.90
4602;DHT22;2313;48.552;9.370;2023-05-10T00:27:22;13.60;99.90
4602;DHT22;2313;48.552;9.370;2023-05-10T00:29:48;13.50;99.90
4602;DHT22;2313;48.552;9.370;2023-05-10T00:32:13;13.50;99.90
4602;DHT22;2313;48.552;9.370;2023-05-10T00:34:39;13.40;99.90
4602;DHT22;2313;48.552;9.370;2023-05-10T00:37:05;13.40;99.90
4602;DHT22;2313;48.552;9.370;2023-05-10T00:39:30;13.40;99.90
4602;DHT22;2313;48.552;9.370;2023-05-10T00:41:56;13.40;99.90
4602;DHT22;2313;48.552;9.370;2023-05-10T00:44:22;13.40;99.90
4602;DHT22;2313;48.552;9.370;2023-05-10T00:46:49;13.40;99.90
4602;DHT22;2313;48.552;9.370;2023-05-10T00:49:15;13.30;99.90
4602;DHT22;2313;48.552;9.370;2023-05-10T00:51:42;13.30;99.90
4602;DHT22;2313;48.552;9.370;2023-05-10T00:54:10;13.30;99.90
4602;DHT22;2313;48.552;9.370;2023-05-10T00:56:37;13.30;99.90
4602;DHT22;2313;48.552;9.370;2023-05-10T00:59:03;13.30;99.90
4602;DHT22;2313;48.552;9.370;2023-05-10T01:01:28;13.30;99.90
4602;DHT22;2313;48.552;9.370;2023-05-10T01:03:55;13.20;99.90
4602;DHT22;2313;48.552;9.370;2023-05-10T01:06:20;13.20;99.90
4602;DHT22;2313;48.552;9.370;2023-05-10T01:08:46;13.20;99.90
4602;DHT22;2313;48.552;9.370;2023-05-10T01:11:13;13.10;99.90
4602;DHT22;2313;48.552;9.370;2023-05-10T01:13:41;13.10;99.90
4602;DHT22;2313;48.552;9.370;2023-05-10T01:16:07;13.10;99.90
4602;DHT22;2313;48.552;9.370;2023-05-10T01:18:36;13.00;99.90
4602;DHT22;2313;48.552;9.370;2023-05-10T01:26:15;13.10;99.90
4602;DHT22;2313;48.552;9.370;2023-05-10T01:32:05;13.10;99.90
4602;DHT22;2313;48.552;9.370;2023-05-10T01:34:44;13.00;99.90
4602;DHT22;2313;48.552;9.370;2023-05-10T01:37:21;13.00;99.90
4602;DHT22;2313;48.552;9.370;2023-05-10T01:39:58;13.00;99.90
4602;DHT22;2313;48.552;9.370;2023-05-10T01:42:32;13.00;99.90
4602;DHT22;2313;48.552;9.370;2023-05-10T01:45:18;13.00;99.90
4602;DHT22;2313;48.552;9.370;2023-05-10T01:47:50;13.00;99.90
4602;DHT22;2313;48.552;9.370;2023-05-10T01:50:23;13.10;99.90
4602;DHT22;2313;48.552;9.370;2023-05-10T01:52:53;13.10;99.90
4602;DHT22;2313;48.552;9.370;2023-05-10T01:55:21;13.00;99.90
4602;DHT22;2313;48.552;9.370;2023-05-10T01:57:52;13.10;99.90
4602;DHT22;2313;48.552;9.370;2023-05-10T02:00:22;13.10;99.90
4602;DHT22;2313;48.552;9.370;2023-05-10T02:02:49;13.10;99.90
4602;DHT22;2313;48.552;9.370;2023-05-10T02:05:17;13.10;99.90
4602;DHT22;2313;48.552;9.370;2023-05-10T02:07:43;13.10;99.90
4602;DHT22;2313;48.552;9.370;2023-05-10T02:10:10;13.10;99.90
4602;DHT22;2313;48.552;9.370;2023-05-10T02:12:39;13.00;99.90
4602;DHT22;2313;48.552;9.370;2023-05-10T02:15:07;13.00;99.90
4602;DHT22;2313;48.552;9.370;2023-05-10T02:17:34;13.00;99.90
4602;DHT22;2313;48.552;9.370;2023-05-10T02:20:02;13.00;99.90
4602;DHT22;2313;48.552;9.370;2023-05-10T02:22:29;12.90;99.90
4602;DHT22;2313;48.552;9.370;2023-05-10T02:24:55;12.90;99.90
4602;DHT22;2313;48.552;9.370;2023-05-10T02:27:24;12.90;99.90
4602;DHT22;2313;48.552;9.370;2023-05-10T02:29:51;12.80;99.90
4602;DHT22;2313;48.552;9.370;2023-05-10T02:32:17;12.80;99.90
4602;DHT22;2313;48.552;9.370;2023-05-10T02:34:45;12.80;99.90
4602;DHT22;2313;48.552;9.370;2023-05-10T02:37:13;12.90;99.90
4602;DHT22;2313;48.552;9.370;2023-05-10T02:39:40;12.90;99.90
4602;DHT22;2313;48.552;9.370;2023-05-10T02:42:18;12.90;99.90
4602;DHT22;2313;48.552;9.370;2023-05-10T02:44:47;12.90;99.90
4602;DHT22;2313;48.552;9.370;2023-05-10T02:47:13;12.90;99.90
4602;DHT22;2313;48.552;9.370;2023-05-10T02:49:38;12.90;99.90
4602;DHT22;2313;48.552;9.370;2023-05-10T02:52:05;12.80;99.90
4602;DHT22;2313;48.552;9.370;2023-05-10T02:54:35;12.80;99.90
4602;DHT22;2313;48.552;9.370;2023-05-10T02:57:05;12.70;99.90
4602;DHT22;2313;48.552;9.370;2023-05-10T02:59:32;12.80;99.90
4602;DHT22;2313;48.552;9.370;2023-05-10T03:01:59;12.80;99.90
4602;DHT22;2313;48.552;9.370;2023-05-10T03:04:25;12.80;99.90
4602;DHT22;2313;48.552;9.370;2023-05-10T03:06:51;12.80;99.90
4602;DHT22;2313;48.552;9.370;2023-05-10T03:09:17;12.70;99.90
4602;DHT22;2313;48.552;9.370;2023-05-10T03:15:00;12.70;99.90
4602;DHT22;2313;48.552;9.370;2023-05-10T03:17:45;12.70;99.90
4602;DHT22;2313;48.552;9.370;2023-05-10T03:20:20;12.70;99.90
4602;DHT22;2313;48.552;9.370;2023-05-10T03:22:57;12.70;99.90
4602;DHT22;2313;48.552;9.370;2023-05-10T03:25:26;12.70;99.90
4602;DHT22;2313;48.552;9.370;2023-05-10T03:27:52;12.70;99.90
4602;DHT22;2313;48.552;9.370;2023-05-10T03:30:18;12.70;99.90
4602;DHT22;2313;48.552;9.370;2023-05-10T03:32:44;12.60;99.90
4602;DHT22;2313;48.552;9.370;2023-05-10T03:35:12;12.60;99.90
4602;DHT22;2313;48.552;9.370;2023-05-10T03:37:38;12.50;99.90
4602;DHT22;2313;48.552;9.370;2023-05-10T03:40:06;12.50;99.90
4602;DHT22;2313;48.552;9.370;2023-05-10T03:42:32;12.50;99.90
4602;DHT22;2313;48.552;9.370;2023-05-10T03:44:57;12.40;99.90
4602;DHT22;2313;48.552;9.370;2023-05-10T03:47:23;12.40;99.90
4602;DHT22;2313;48.552;9.370;2023-05-10T03:49:48;12.30;99.90
4602;DHT22;2313;48.552;9.370;2023-05-10T03:52:14;12.30;99.90
4602;DHT22;2313;48.552;9.370;2023-05-10T03:54:40;12.30;99.90
4602;DHT22;2313;48.552;9.370;2023-05-10T03:57:05;12.30;99.90
4602;DHT22;2313;48.552;9.370;2023-05-10T03:59:31;12.40;99.90
4602;DHT22;2313;48.552;9.370;2023-05-10T04:01:56;12.40;99.90
4602;DHT22;2313;48.552;9.370;2023-05-10T04:04:22;12.30;99.90
4602;DHT22;2313;48.552;9.370;2023-05-10T04:06:48;12.30;99.90
4602;DHT22;2313;48.552;9.370;2023-05-10T04:09:14;12.30;99.90
4602;DHT22;2313;48.552;9.370;2023-05-10T04:11:40;12.20;99.90
4602;DHT22;2313;48.552;9.370;2023-05-10T04:14:06;12.20;99.90
4602;DHT22;2313;48.552;9.370;2023-05-10T04:16:31;12.30;99.90
4602;DHT22;2313;48.552;9.370;2023-05-10T04:18:57;12.30;99.90
4602;DHT22;2313;48.552;9.370;2023-05-10T04:21:22;12.30;99.90
4602;DHT22;2313;48.552;9.370;2023-05-10T04:23:48;12.40;99.90
4602;DHT22;2313;48.552;9.370;2023-05-10T04:26:14;12.40;99.90
4602;DHT22;2313;48.552;9.370;2023-05-10T04:28:39;12.40;99.90
4602;DHT22;2313;48.552;9.370;2023-05-10T04:31:07;12.30;99.90
4602;DHT22;2313;48.552;9.370;2023-05-10T04:33:33;12.40;99.90
4602;DHT22;2313;48.552;9.370;2023-05-10T04:35:59;12.40;99.90
4602;DHT22;2313;48.552;9.370;2023-05-10T04:38:25;12.40;99.90
4602;DHT22;2313;48.552;9.370;2023-05-10T04:40:51;12.30;99.90
4602;DHT22;2313;48.552;9.370;2023-05-10T04:43:16;12.40;99.90
4602;DHT22;2313;48.552;9.370;2023-05-10T04:45:42;12.40;99.90
4602;DHT22;2313;48.552;9.370;2023-05-10T04:48:08;12.40;99.90
4602;DHT22;2313;48.552;9.370;2023-05-10T04:50:33;12.40;99.90
4602;DHT22;2313;48.552;9.370;2023-05-10T04:52:59;12.30;99.90
4602;DHT22;2313;48.552;9.370;2023-05-10T04:55:24;12.40;99.90
4602;DHT22;2313;48.552;9.370;2023-05-10T04:57:51;12.40;99.90
4602;DHT22;2313;48.552;9.370;2023-05-10T05:00:17;12.50;99.90
4602;DHT22;2313;48.552;9.370;2023-05-10T05:02:44;12.50;99.90
4602;DHT22;2313;48.552;9.370;2023-05-10T05:05:12;12.60;99.90
4602;DHT22;2313;48.552;9.370;2023-05-10T05:07:38;12.60;99.90
4602;DHT22;2313;48.552;9.370;2023-05-10T05:10:08;12.60;99.90
4602;DHT22;2313;48.552;9.370;2023-05-10T05:12:34;12.60;99.90
4602;DHT22;2313;48.552;9.370;2023-05-10T05:15:01;12.50;99.90
4602;DHT22;2313;48.552;9.370;2023-05-10T05:17:29;12.50;99.90
4602;DHT22;2313;48.552;9.370;2023-05-10T05:19:55;12.40;99.90
4602;DHT22;2313;48.552;9.370;2023-05-10T05:22:21;12.40;99.90
4602;DHT22;2313;48.552;9.370;2023-05-10T05:24:53;12.40;99.90
4602;DHT22;2313;48.552;9.370;2023-05-10T05:27:19;12.40;99.90
4602;DHT22;2313;48.552;9.370;2023-05-10T05:29:46;12.50;99.90
4602;DHT22;2313;48.552;9.370;2023-05-10T05:32:11;12.50;99.90
4602;DHT22;2313;48.552;9.370;2023-05-10T05:34:37;12.50;99.90
4602;DHT22;2313;48.552;9.370;2023-05-10T05:37:03;12.50;99.90
4602;DHT22;2313;48.552;9.370;2023-05-10T05:39:28;12.50;99.90
4602;DHT22;2313;48.552;9.370;2023-05-10T05:41:54;12.50;99.90
4602;DHT22;2313;48.552;9.370;2023-05-10T05:44:20;12.50;99.90
4602;DHT22;2313;48.552;9.370;2023-05-10T05:46:45;12.60;99.90
4602;DHT22;2313;48.552;9.370;2023-05-10T05:49:11;12.50;99.90
4602;DHT22;2313;48.552;9.370;2023-05-10T05:51:37;12.60;99.90
4602;DHT22;2313;48.552;9.370;2023-05-10T05:54:03;12.60;99.90
4602;DHT22;2313;48.552;9.370;2023-05-10T05:56:29;12.70;99.90
4602;DHT22;2313;48.552;9.370;2023-05-10T05:58:55;12.80;99.90
4602;DHT22;2313;48.552;9.370;2023-05-10T06:01:21;12.80;99.90
4602;DHT22;2313;48.552;9.370;2023-05-10T06:03:46;12.70;99.90
4602;DHT22;2313;48.552;9.370;2023-05-10T06:06:12;12.80;99.90
4602;DHT22;2313;48.552;9.370;2023-05-10T06:08:38;12.70;99.90
4602;DHT22;2313;48.552;9.370;2023-05-10T06:11:03;12.80;99.90
4602;DHT22;2313;48.552;9.370;2023-05-10T06:13:29;12.80;99.90
4602;DHT22;2313;48.552;9.370;2023-05-10T06:15:58;12.90;99.90
4602;DHT22;2313;48.552;9.370;2023-05-10T06:18:24;12.80;99.90
4602;DHT22;2313;48.552;9.370;2023-05-10T06:20:49;12.90;99.90
4602;DHT22;2313;48.552;9.370;2023-05-10T06:23:15;12.90;99.90
4602;DHT22;2313;48.552;9.370;2023-05-10T06:25:41;12.90;99.90
4602;DHT22;2313;48.552;9.370;2023-05-10T06:28:06;12.90;99.90
4602;DHT22;2313;48.552;9.370;2023-05-10T06:30:32;12.80;99.90
4602;DHT22;2313;48.552;9.370;2023-05-10T06:32:58;12.90;99.90
4602;DHT22;2313;48.552;9.370;2023-05-10T06:35:23;13.00;99.90
4602;DHT22;2313;48.552;9.370;2023-05-10T06:37:50;12.80;99.90
4602;DHT22;2313;48.552;9.370;2023-05-10T06:40:16;12.80;99.90
4602;DHT22;2313;48.552;9.370;2023-05-10T06:42:41;13.00;99.90
4602;DHT22;2313;48.552;9.370;2023-05-10T06:45:08;13.00;99.90
4602;DHT22;2313;48.552;9.370;2023-05-10T06:47:34;13.00;99.90
4602;DHT22;2313;48.552;9.370;2023-05-10T06:50:00;13.10;99.90
4602;DHT22;2313;48.552;9.370;2023-05-10T06:52:25;13.10;99.90
4602;DHT22;2313;48.552;9.370;2023-05-10T06:54:51;13.10;99.90
4602;DHT22;2313;48.552;9.370;2023-05-10T06:57:17;13.00;99.90
4602;DHT22;2313;48.552;9.370;2023-05-10T06:59:43;13.00;99.90
4602;DHT22;2313;48.552;9.370;2023-05-10T07:02:08;13.10;99.90
4602;DHT22;2313;48.552;9.370;2023-05-10T07:04:34;13.10;99.90
4602;DHT22;2313;48.552;9.370;2023-05-10T07:07:00;13.10;99.90
4602;DHT22;2313;48.552;9.370;2023-05-10T07:09:25;13.10;99.90
4602;DHT22;2313;48.552;9.370;2023-05-10T07:11:51;13.20;99.90
4602;DHT22;2313;48.552;9.370;2023-05-10T07:14:16;13.20;99.90
4602;DHT22;2313;48.552;9.370;2023-05-10T07:16:42;13.20;99.90
4602;DHT22;2313;48.552;9.370;2023-05-10T07:19:07;13.30;99.90
4602;DHT22;2313;48.552;9.370;2023-05-10T07:21:33;13.40;99.90
4602;DHT22;2313;48.552;9.370;2023-05-10T07:24:00;13.50;99.90
4602;DHT22;2313;48.552;9.370;2023-05-10T07:26:26;13.60;99.90
4602;DHT22;2313;48.552;9.370;2023-05-10T07:28:51;13.80;99.90
4602;DHT22;2313;48.552;9.370;2023-05-10T07:31:17;13.80;99.90
4602;DHT22;2313;48.552;9.370;2023-05-10T07:33:43;13.80;99.90
4602;DHT22;2313;48.552;9.370;2023-05-10T07:36:08;13.90;99.90
4602;DHT22;2313;48.552;9.370;2023-05-10T07:38:34;13.90;99.90
4602;DHT22;2313;48.552;9.370;2023-05-10T07:40:59;13.90;99.90
4602;DHT22;2313;48.552;9.370;2023-05-10T07:43:25;13.90;99.90
4602;DHT22;2313;48.552;9.370;2023-05-10T07:45:50;13.80;99.90
4602;DHT22;2313;48.552;9.370;2023-05-10T07:48:16;13.80;99.90
4602;DHT22;2313;48.552;9.370;2023-05-10T07:50:42;13.80;99.90
4602;DHT22;2313;48.552;9.370;2023-05-10T07:53:07;13.80;99.90
4602;DHT22;2313;48.552;9.370;2023-05-10T07:55:33;13.90;99.90
4602;DHT22;2313;48.552;9.370;2023-05-10T07:57:59;13.90;99.90
4602;DHT22;2313;48.552;9.370;2023-05-10T08:00:26;13.80;99.90
4602;DHT22;2313;48.552;9.370;2023-05-10T08:02:52;13.80;99.90
4602;DHT22;2313;48.552;9.370;2023-05-10T08:05:18;13.90;99.90
4602;DHT22;2313;48.552;9.370;2023-05-10T08:07:44;13.90;99.90
4602;DHT22;2313;48.552;9.370;2023-05-10T08:10:10;14.10;99.90
4602;DHT22;2313;48.552;9.370;2023-05-10T08:12:36;14.20;99.90
4602;DHT22;2313;48.552;9.370;2023-05-10T08:15:03;14.30;99.90
4602;DHT22;2313;48.552;9.370;2023-05-10T08:17:29;14.40;99.90
4602;DHT22;2313;48.552;9.370;2023-05-10T08:19:54;14.50;99.90
4602;DHT22;2313;48.552;9.370;2023-05-10T08:22:20;14.50;99.90
4602;DHT22;2313;48.552;9.370;2023-05-10T08:24:45;14.30;99.90
4602;DHT22;2313;48.552;9.370;2023-05-10T08:27:11;14.30;99.90
4602;DHT22;2313;48.552;9.370;2023-05-10T08:29:37;14.10;99.90
4602;DHT22;2313;48.552;9.370;2023-05-10T08:32:03;14.30;99.90
4602;DHT22;2313;48.552;9.370;2023-05-10T08:34:29;14.40;99.90
4602;DHT22;2313;48.552;9.370;2023-05-10T08:36:56;14.30;99.90
4602;DHT22;2313;48.552;9.370;2023-05-10T08:39:22;14.30;99.90
4602;DHT22;2313;48.552;9.370;2023-05-10T08:41:51;14.30;99.90
4602;DHT22;2313;48.552;9.370;2023-05-10T08:44:16;14.40;99.90
4602;DHT22;2313;48.552;9.370;2023-05-10T08:46:46;14.50;99.90
4602;DHT22;2313;48.552;9.370;2023-05-10T08:49:17;14.50;99.90
4602;DHT22;2313;48.552;9.370;2023-05-10T08:51:49;14.70;99.90
4602;DHT22;2313;48.552;9.370;2023-05-10T08:54:15;14.70;99.90
4602;DHT22;2313;48.552;9.370;2023-05-10T08:56:41;14.90;99.90
4602;DHT22;2313;48.552;9.370;2023-05-10T08:59:07;15.10;99.90
4602;DHT22;2313;48.552;9.370;2023-05-10T09:01:33;15.00;99.90
4602;DHT22;2313;48.552;9.370;2023-05-10T09:04:00;15.00;99.90
4602;DHT22;2313;48.552;9.370;2023-05-10T09:06:26;15.10;99.90
4602;DHT22;2313;48.552;9.370;2023-05-10T09:08:52;15.30;99.90
4602;DHT22;2313;48.552;9.370;2023-05-10T09:11:18;15.30;99.90
4602;DHT22;2313;48.552;9.370;2023-05-10T09:13:47;15.20;99.90
4602;DHT22;2313;48.552;9.370;2023-05-10T09:16:13;15.30;99.90
4602;DHT22;2313;48.552;9.370;2023-05-10T09:18:39;15.30;99.90
4602;DHT22;2313;48.552;9.370;2023-05-10T09:21:04;15.40;99.90
4602;DHT22;2313;48.552;9.370;2023-05-10T09:23:30;15.60;99.90
4602;DHT22;2313;48.552;9.370;2023-05-10T09:26:07;15.70;99.90
4602;DHT22;2313;48.552;9.370;2023-05-10T09:28:51;15.70;99.90
4602;DHT22;2313;48.552;9.370;2023-05-10T09:31:17;15.80;99.90
4602;DHT22;2313;48.552;9.370;2023-05-10T09:33:47;15.80;99.90
4602;DHT22;2313;48.552;9.370;2023-05-10T09:36:13;15.60;99.90
4602;DHT22;2313;48.552;9.370;2023-05-10T09:38:49;15.50;99.90
4602;DHT22;2313;48.552;9.370;2023-05-10T09:41:24;15.50;99.90
4602;DHT22;2313;48.552;9.370;2023-05-10T09:43:50;15.50;99.90
4602;DHT22;2313;48.552;9.370;2023-05-10T09:46:20;15.50;99.90
4602;DHT22;2313;48.552;9.370;2023-05-10T09:48:47;15.40;99.90
4602;DHT22;2313;48.552;9.370;2023-05-10T09:51:23;15.40;99.90
4602;DHT22;2313;48.552;9.370;2023-05-10T09:54:12;15.40;99.90
4602;DHT22;2313;48.552;9.370;2023-05-10T09:56:38;15.20;99.90
4602;DHT22;2313;48.552;9.370;2023-05-10T09:59:06;15.30;99.90
4602;DHT22;2313;48.552;9.370;2023-05-10T10:01:32;15.50;99.90
4602;DHT22;2313;48.552;9.370;2023-05-10T10:03:58;15.80;99.90
4602;DHT22;2313;48.552;9.370;2023-05-10T10:06:24;15.90;99.90
4602;DHT22;2313;48.552;9.370;2023-05-10T10:08:51;16.00;99.90
4602;DHT22;2313;48.552;9.370;2023-05-10T10:11:17;16.00;99.90
4602;DHT22;2313;48.552;9.370;2023-05-10T10:13:43;16.20;99.90
4602;DHT22;2313;48.552;9.370;2023-05-10T10:16:09;16.40;99.90
4602;DHT22;2313;48.552;9.370;2023-05-10T10:18:36;16.50;99.90
4602;DHT22;2313;48.552;9.370;2023-05-10T10:21:06;16.70;99.90
4602;DHT22;2313;48.552;9.370;2023-05-10T10:23:34;16.80;99.90
4602;DHT22;2313;48.552;9.370;2023-05-10T10:26:00;16.90;99.90
4602;DHT22;2313;48.552;9.370;2023-05-10T10:31:40;17.10;99.90
4602;DHT22;2313;48.552;9.370;2023-05-10T10:34:09;17.40;99.90
4602;DHT22;2313;48.552;9.370;2023-05-10T10:36:46;17.50;99.90
4602;DHT22;2313;48.552;9.370;2023-05-10T10:39:13;17.50;99.90
4602;DHT22;2313;48.552;9.370;2023-05-10T10:41:48;17.40;99.90
4602;DHT22;2313;48.552;9.370;2023-05-10T10:49:31;17.00;99.90
4602;DHT22;2313;48.552;9.370;2023-05-10T10:57:42;15.40;99.90
4602;DHT22;2313;48.552;9.370;2023-05-10T11:03:03;15.60;99.90
4602;DHT22;2313;48.552;9.370;2023-05-10T11:07:59;15.10;99.90
4602;DHT22;2313;48.552;9.370;2023-05-10T11:10:26;15.10;99.90
4602;DHT22;2313;48.552;9.370;2023-05-10T11:15:19;14.80;99.90
4602;DHT22;2313;48.552;9.370;2023-05-10T11:17:45;14.80;99.90
4602;DHT22;2313;48.552;9.370;2023-05-10T11:20:17;14.90;99.90
4602;DHT22;2313;48.552;9.370;2023-05-10T11:22:54;14.80;99.90
4602;DHT22;2313;48.552;9.370;2023-05-10T11:25:25;15.00;99.90
4602;DHT22;2313;48.552;9.370;2023-05-10T11:27:51;15.30;99.90
4602;DHT22;2313;48.552;9.370;2023-05-10T11:30:17;15.20;99.90
4602;DHT22;2313;48.552;9.370;2023-05-10T11:32:43;15.20;99.90
4602;DHT22;2313;48.552;9.370;2023-05-10T11:35:12;15.40;99.90
4602;DHT22;2313;48.552;9.370;2023-05-10T11:37:41;15.50;99.90
4602;DHT22;2313;48.552;9.370;2023-05-10T11:40:10;15.60;99.90
4602;DHT22;2313;48.552;9.370;2023-05-10T11:42:38;15.60;99.90
4602;DHT22;2313;48.552;9.370;2023-05-10T11:45:05;15.40;99.90
4602;DHT22;2313;48.552;9.370;2023-05-10T11:47:31;15.00;99.90
4602;DHT22;2313;48.552;9.370;2023-05-10T11:49:57;14.40;99.90
4602;DHT22;2313;48.552;9.370;2023-05-10T11:52:23;14.00;99.90
4602;DHT22;2313;48.552;9.370;2023-05-10T11:54:52;13.60;99.90
4602;DHT22;2313;48.552;9.370;2023-05-10T11:57:19;13.50;99.90
4602;DHT22;2313;48.552;9.370;2023-05-10T11:59:46;13.30;99.90
4602;DHT22;2313;48.552;9.370;2023-05-10T12:02:13;13.20;99.90
4602;DHT22;2313;48.552;9.370;2023-05-10T12:04:39;13.10;99.90
4602;DHT22;2313;48.552;9.370;2023-05-10T12:07:05;13.10;99.90
4602;DHT22;2313;48.552;9.370;2023-05-10T12:09:30;12.90;99.90
4602;DHT22;2313;48.552;9.370;2023-05-10T12:11:56;13.00;99.90
4602;DHT22;2313;48.552;9.370;2023-05-10T12:14:26;13.10;99.90
4602;DHT22;2313;48.552;9.370;2023-05-10T12:16:51;13.10;99.90
4602;DHT22;2313;48.552;9.370;2023-05-10T12:19:20;13.00;99.90
4602;DHT22;2313;48.552;9.370;2023-05-10T12:21:47;13.10;99.90
4602;DHT22;2313;48.552;9.370;2023-05-10T12:24:12;13.20;99.90
4602;DHT22;2313;48.552;9.370;2023-05-10T12:26:39;13.20;99.90
4602;DHT22;2313;48.552;9.370;2023-05-10T12:29:16;13.30;99.90
4602;DHT22;2313;48.552;9.370;2023-05-10T12:31:52;13.30;99.90
4602;DHT22;2313;48.552;9.370;2023-05-10T12:34:31;13.40;99.90
4602;DHT22;2313;48.552;9.370;2023-05-10T12:36:58;13.50;99.90
4602;DHT22;2313;48.552;9.370;2023-05-10T12:39:24;13.60;99.90
4602;DHT22;2313;48.552;9.370;2023-05-10T12:41:51;13.60;99.90
4602;DHT22;2313;48.552;9.370;2023-05-10T12:44:16;13.70;99.90
4602;DHT22;2313;48.552;9.370;2023-05-10T12:46:42;13.90;99.90
4602;DHT22;2313;48.552;9.370;2023-05-10T12:49:08;13.90;99.90
4602;DHT22;2313;48.552;9.370;2023-05-10T12:51:34;14.10;99.90
4602;DHT22;2313;48.552;9.370;2023-05-10T12:53:59;14.30;99.90
4602;DHT22;2313;48.552;9.370;2023-05-10T12:56:25;14.50;99.90
4602;DHT22;2313;48.552;9.370;2023-05-10T12:58:51;14.40;99.90
4602;DHT22;2313;48.552;9.370;2023-05-10T13:01:16;14.40;99.90
4602;DHT22;2313;48.552;9.370;2023-05-10T13:03:42;14.40;99.90
4602;DHT22;2313;48.552;9.370;2023-05-10T13:06:11;14.70;99.90
4602;DHT22;2313;48.552;9.370;2023-05-10T13:08:38;14.90;99.90
4602;DHT22;2313;48.552;9.370;2023-05-10T13:11:05;15.10;99.90
4602;DHT22;2313;48.552;9.370;2023-05-10T13:13:31;15.20;99.90
4602;DHT22;2313;48.552;9.370;2023-05-10T13:15:56;15.20;99.90
4602;DHT22;2313;48.552;9.370;2023-05-10T13:18:22;15.20;99.90
4602;DHT22;2313;48.552;9.370;2023-05-10T13:20:48;15.10;99.90
4602;DHT22;2313;48.552;9.370;2023-05-10T13:23:14;15.20;99.90
4602;DHT22;2313;48.552;9.370;2023-05-10T13:25:40;15.10;99.90
4602;DHT22;2313;48.552;9.370;2023-05-10T13:28:06;15.20;99.90
4602;DHT22;2313;48.552;9.370;2023-05-10T13:30:31;15.10;99.90
4602;DHT22;2313;48.552;9.370;2023-05-10T13:32:57;15.30;99.90
4602;DHT22;2313;48.552;9.370;2023-05-10T13:35:22;15.40;99.90
4602;DHT22;2313;48.552;9.370;2023-05-10T13:37:48;15.50;99.90
4602;DHT22;2313;48.552;9.370;2023-05-10T13:40:14;15.60;99.90
4602;DHT22;2313;48.552;9.370;2023-05-10T13:42:40;15.60;99.90
4602;DHT22;2313;48.552;9.370;2023-05-10T13:45:06;15.70;99.90
4602;DHT22;2313;48.552;9.370;2023-05-10T13:47:32;15.70;99.90
4602;DHT22;2313;48.552;9.370;2023-05-10T13:49:58;15.70;99.90
4602;DHT22;2313;48.552;9.370;2023-05-10T13:52:23;15.60;99.90
4602;DHT22;2313;48.552;9.370;2023-05-10T13:54:49;15.70;99.90
4602;DHT22;2313;48.552;9.370;2023-05-10T13:57:15;15.80;99.90
4602;DHT22;2313;48.552;9.370;2023-05-10T13:59:42;15.80;99.90
4602;DHT22;2313;48.552;9.370;2023-05-10T14:02:07;15.70;99.90
4602;DHT22;2313;48.552;9.370;2023-05-10T14:04:33;15.60;99.90
4602;DHT22;2313;48.552;9.370;2023-05-10T14:07:00;15.70;99.90
4602;DHT22;2313;48.552;9.370;2023-05-10T14:09:26;15.70;99.90
4602;DHT22;2313;48.552;9.370;2023-05-10T14:11:51;15.70;99.90
4602;DHT22;2313;48.552;9.370;2023-05-10T14:14:17;15.80;99.90
4602;DHT22;2313;48.552;9.370;2023-05-10T14:16:44;15.70;99.90
4602;DHT22;2313;48.552;9.370;2023-05-10T14:19:10;15.80;99.90
4602;DHT22;2313;48.552;9.370;2023-05-10T14:21:36;15.80;99.90
4602;DHT22;2313;48.552;9.370;2023-05-10T14:24:02;15.90;99.90
4602;DHT22;2313;48.552;9.370;2023-05-10T14:26:27;15.80;99.90
4602;DHT22;2313;48.552;9.370;2023-05-10T14:28:53;15.80;99.90
4602;DHT22;2313;48.552;9.370;2023-05-10T14:31:19;15.90;99.90
4602;DHT22;2313;48.552;9.370;2023-05-10T14:33:46;15.70;99.90
4602;DHT22;2313;48.552;9.370;2023-05-10T14:36:12;15.90;99.90
4602;DHT22;2313;48.552;9.370;2023-05-10T14:38:38;15.80;99.90
4602;DHT22;2313;48.552;9.370;2023-05-10T14:41:04;15.80;99.90
4602;DHT22;2313;48.552;9.370;2023-05-10T14:43:30;15.90;99.90
4602;DHT22;2313;48.552;9.370;2023-05-10T14:45:55;15.90;99.90
4602;DHT22;2313;48.552;9.370;2023-05-10T14:48:21;15.90;99.90
4602;DHT22;2313;48.552;9.370;2023-05-10T14:50:47;15.80;99.90
4602;DHT22;2313;48.552;9.370;2023-05-10T14:53:12;15.80;99.90
4602;DHT22;2313;48.552;9.370;2023-05-10T14:55:38;15.80;99.90
4602;DHT22;2313;48.552;9.370;2023-05-10T14:58:04;15.60;99.90
4602;DHT22;2313;48.552;9.370;2023-05-10T15:00:30;15.50;99.90
4602;DHT22;2313;48.552;9.370;2023-05-10T15:02:56;15.50;99.90
4602;DHT22;2313;48.552;9.370;2023-05-10T15:05:22;15.60;99.90
4602;DHT22;2313;48.552;9.370;2023-05-10T15:07:48;15.60;99.90
4602;DHT22;2313;48.552;9.370;2023-05-10T15:10:14;15.60;99.90
4602;DHT22;2313;48.552;9.370;2023-05-10T15:12:40;15.60;99.90
4602;DHT22;2313;48.552;9.370;2023-05-10T15:15:06;15.60;99.90
4602;DHT22;2313;48.552;9.370;2023-05-10T15:17:32;15.70;99.90
4602;DHT22;2313;48.552;9.370;2023-05-10T15:19:57;15.70;99.90
4602;DHT22;2313;48.552;9.370;2023-05-10T15:22:23;15.60;99.90
4602;DHT22;2313;48.552;9.370;2023-05-10T15:24:49;15.40;99.90
4602;DHT22;2313;48.552;9.370;2023-05-10T15:27:15;15.40;99.90
4602;DHT22;2313;48.552;9.370;2023-05-10T15:29:40;15.50;99.90
4602;DHT22;2313;48.552;9.370;2023-05-10T15:32:06;15.50;99.90
4602;DHT22;2313;48.552;9.370;2023-05-10T15:34:32;15.60;99.90
4602;DHT22;2313;48.552;9.370;2023-05-10T15:36:57;15.70;99.90
4602;DHT22;2313;48.552;9.370;2023-05-10T15:39:23;15.80;99.90
4602;DHT22;2313;48.552;9.370;2023-05-10T15:41:49;15.70;99.90
4602;DHT22;2313;48.552;9.370;2023-05-10T15:44:14;15.70;99.90
4602;DHT22;2313;48.552;9.370;2023-05-10T15:46:40;15.50;99.90
4602;DHT22;2313;48.552;9.370;2023-05-10T15:49:06;15.50;99.90
4602;DHT22;2313;48.552;9.370;2023-05-10T15:51:31;15.60;99.90
4602;DHT22;2313;48.552;9.370;2023-05-10T15:54:00;15.50;99.90
4602;DHT22;2313;48.552;9.370;2023-05-10T15:56:27;15.60;99.90
4602;DHT22;2313;48.552;9.370;2023-05-10T15:58:53;15.60;99.90
4602;DHT22;2313;48.552;9.370;2023-05-10T16:01:18;15.60;99.90
4602;DHT22;2313;48.552;9.370;2023-05-10T16:03:44;15.60;99.90
4602;DHT22;2313;48.552;9.370;2023-05-10T16:06:10;15.60;99.90
4602;DHT22;2313;48.552;9.370;2023-05-10T16:08:35;15.50;99.90
4602;DHT22;2313;48.552;9.370;2023-05-10T16:11:01;15.40;99.90
4602;DHT22;2313;48.552;9.370;2023-05-10T16:13:28;15.40;99.90
4602;DHT22;2313;48.552;9.370;2023-05-10T16:15:54;15.40;99.90
4602;DHT22;2313;48.552;9.370;2023-05-10T16:18:19;15.40;99.90
4602;DHT22;2313;48.552;9.370;2023-05-10T16:20:45;15.50;99.90
4602;DHT22;2313;48.552;9.370;2023-05-10T16:23:11;15.50;99.90
4602;DHT22;2313;48.552;9.370;2023-05-10T16:25:38;15.50;99.90
4602;DHT22;2313;48.552;9.370;2023-05-10T16:28:04;15.50;99.90
4602;DHT22;2313;48.552;9.370;2023-05-10T16:30:29;15.40;99.90
4602;DHT22;2313;48.552;9.370;2023-05-10T16:32:56;15.40;99.90